This is the latest recevied weather packets stored in our database for station/object W8MRL. If no packets are shown the sender has not sent any weather packets the latest 1 day(s).
| Time | Temp. | Humidity | Pressure | Rain* | Wind** | Luminosity | Snow |
|---|---|---|---|---|---|---|---|
| 1778024719 | 15.56° C | 96% | 1010.2 hPa | 1.52 mm | 0.45 m/s, 212° | - | - |
| 1778023825 | 15.56° C | 96% | 1010.1 hPa | 1.52 mm | 0 m/s | - | - |
| 1778022918 | 15.56° C | 96% | 1010.4 hPa | 1.27 mm | 0 m/s | - | - |
| 1778022017 | 15.56° C | 96% | 1010.3 hPa | 1.78 mm | 0 m/s | - | - |
| 1778021117 | 15.56° C | 95% | 1010.5 hPa | 2.03 mm | 0 m/s | - | - |
| 1778020216 | 15.56° C | 95% | 1010.8 hPa | 1.78 mm | 0 m/s | - | - |
| 1778019316 | 15.56° C | 95% | 1010.9 hPa | 2.03 mm | 0 m/s | - | - |
| 1778018428 | 15.56° C | 95% | 1011.2 hPa | 1.02 mm | 0.89 m/s, 223° | - | - |
| 1778017520 | 15.56° C | 95% | 1011.2 hPa | 0.51 mm | 0.89 m/s, 165° | - | - |
| 1778016613 | 15.56° C | 94% | 1011.1 hPa | 0.76 mm | 0 m/s | - | - |
| 1778015712 | 15.56° C | 93% | 1011.1 hPa | 0.51 mm | 0.45 m/s, 196° | - | - |
| 1778014812 | 15.56° C | 93% | 1011 hPa | - | 0.89 m/s, 221° | - | - |
| 1778013911 | 15.56° C | 93% | 1011.1 hPa | 1.52 mm | 1.34 m/s, 221° | - | - |
| 1778013011 | 16.11° C | 93% | 1011.3 hPa | 2.29 mm | 0.45 m/s, 216° | - | - |
| 1778012109 | 16.11° C | 92% | 1011.2 hPa | 2.54 mm | 0.45 m/s, 197° | - | - |
| 1778011215 | 16.11° C | 90% | 1011.3 hPa | 2.03 mm | 1.34 m/s, 209° | - | - |
| 1778010309 | 16.11° C | 88% | 1011.7 hPa | 1.52 mm | 0.89 m/s, 221° | - | - |
| 1778009408 | 17.22° C | 83% | 1011.9 hPa | 0.51 mm | 1.79 m/s, 217° | - | - |
| 1778008520 | 18.33° C | 79% | 1011.5 hPa | 0 mm | 0.89 m/s, 232° | - | - |
| 1778007607 | 18.33° C | 78% | 1011.4 hPa | 0 mm | 0.89 m/s, 200° | - | - |
| 1778006706 | 18.89° C | 77% | 1011.5 hPa | 0 mm | 0.89 m/s, 229° | - | - |
| 1778005805 | 18.89° C | 75% | 1011.6 hPa | 0 mm | 0.89 m/s, 195° | - | - |
| 1778004904 | 18.89° C | 75% | 1011.7 hPa | 0 mm | 0.89 m/s, 214° | - | - |
| 1778004004 | 19.44° C | 73% | 1011.8 hPa | 0 mm | 2.24 m/s, 198° | - | - |
| 1778003103 | 19.44° C | 74% | 1011.9 hPa | 0 mm | 1.34 m/s, 193° | - | - |
* Rain latest hour (hover to see other rain measurements)
** Current wind speed in m/s (hover to see current wind gust speed)